sensor_id;sensor_type;location;lat;lon;timestamp;P1;durP1;ratioP1;P2;durP2;ratioP2
47113;SDS011;32867;51.556;6.832;2023-02-15T00:03:34;18.75;;;11.63;;
47113;SDS011;32867;51.556;6.832;2023-02-15T00:08:35;20.70;;;12.43;;
47113;SDS011;32867;51.556;6.832;2023-02-15T00:13:36;23.08;;;12.73;;
47113;SDS011;32867;51.556;6.832;2023-02-15T00:18:38;20.75;;;13.23;;
47113;SDS011;32867;51.556;6.832;2023-02-15T00:23:39;19.65;;;12.50;;
47113;SDS011;32867;51.556;6.832;2023-02-15T00:28:40;20.70;;;12.90;;
47113;SDS011;32867;51.556;6.832;2023-02-15T00:33:41;21.48;;;12.80;;
47113;SDS011;32867;51.556;6.832;2023-02-15T00:38:41;20.45;;;12.65;;
47113;SDS011;32867;51.556;6.832;2023-02-15T00:43:42;21.17;;;13.50;;
47113;SDS011;32867;51.556;6.832;2023-02-15T00:48:43;21.98;;;12.48;;
47113;SDS011;32867;51.556;6.832;2023-02-15T00:53:44;23.65;;;13.60;;
47113;SDS011;32867;51.556;6.832;2023-02-15T00:58:44;21.88;;;12.75;;
47113;SDS011;32867;51.556;6.832;2023-02-15T01:03:45;20.20;;;12.50;;
47113;SDS011;32867;51.556;6.832;2023-02-15T01:08:47;21.20;;;12.15;;
47113;SDS011;32867;51.556;6.832;2023-02-15T01:13:48;20.70;;;12.88;;
47113;SDS011;32867;51.556;6.832;2023-02-15T01:18:50;17.38;;;12.40;;
47113;SDS011;32867;51.556;6.832;2023-02-15T01:23:51;20.67;;;12.48;;
47113;SDS011;32867;51.556;6.832;2023-02-15T01:28:52;22.63;;;13.40;;
47113;SDS011;32867;51.556;6.832;2023-02-15T01:33:53;23.60;;;13.88;;
47113;SDS011;32867;51.556;6.832;2023-02-15T01:38:53;19.73;;;12.70;;
47113;SDS011;32867;51.556;6.832;2023-02-15T01:43:55;21.00;;;12.52;;
47113;SDS011;32867;51.556;6.832;2023-02-15T01:49:09;18.52;;;11.60;;
47113;SDS011;32867;51.556;6.832;2023-02-15T01:59:38;21.77;;;12.75;;
47113;SDS011;32867;51.556;6.832;2023-02-15T02:04:44;23.67;;;14.98;;
47113;SDS011;32867;51.556;6.832;2023-02-15T02:09:55;19.60;;;12.40;;
47113;SDS011;32867;51.556;6.832;2023-02-15T02:14:57;22.08;;;12.45;;
47113;SDS011;32867;51.556;6.832;2023-02-15T02:36:06;22.23;;;12.65;;
47113;SDS011;32867;51.556;6.832;2023-02-15T02:41:32;20.05;;;12.70;;
47113;SDS011;32867;51.556;6.832;2023-02-15T02:46:48;22.10;;;13.65;;
47113;SDS011;32867;51.556;6.832;2023-02-15T02:51:59;22.02;;;14.07;;
47113;SDS011;32867;51.556;6.832;2023-02-15T02:57:03;20.48;;;12.50;;
47113;SDS011;32867;51.556;6.832;2023-02-15T03:02:11;20.65;;;12.27;;
47113;SDS011;32867;51.556;6.832;2023-02-15T03:07:17;19.67;;;11.95;;
47113;SDS011;32867;51.556;6.832;2023-02-15T03:12:24;25.42;;;14.20;;
47113;SDS011;32867;51.556;6.832;2023-02-15T03:17:31;24.23;;;13.88;;
47113;SDS011;32867;51.556;6.832;2023-02-15T03:22:35;23.17;;;14.75;;
47113;SDS011;32867;51.556;6.832;2023-02-15T03:27:50;27.35;;;15.93;;
47113;SDS011;32867;51.556;6.832;2023-02-15T03:32:55;22.10;;;13.38;;
47113;SDS011;32867;51.556;6.832;2023-02-15T03:38:00;27.58;;;16.65;;
47113;SDS011;32867;51.556;6.832;2023-02-15T03:48:40;21.50;;;13.63;;
47113;SDS011;32867;51.556;6.832;2023-02-15T03:53:46;24.00;;;14.45;;
47113;SDS011;32867;51.556;6.832;2023-02-15T03:58:48;25.27;;;15.90;;
47113;SDS011;32867;51.556;6.832;2023-02-15T04:04:08;25.70;;;14.85;;
47113;SDS011;32867;51.556;6.832;2023-02-15T04:09:21;25.77;;;16.08;;
47113;SDS011;32867;51.556;6.832;2023-02-15T04:14:40;25.80;;;14.90;;
47113;SDS011;32867;51.556;6.832;2023-02-15T04:20:00;21.65;;;14.43;;
47113;SDS011;32867;51.556;6.832;2023-02-15T04:25:19;26.80;;;15.48;;
47113;SDS011;32867;51.556;6.832;2023-02-15T04:30:21;26.95;;;16.65;;
47113;SDS011;32867;51.556;6.832;2023-02-15T04:35:23;28.55;;;16.60;;
47113;SDS011;32867;51.556;6.832;2023-02-15T04:40:25;28.67;;;16.65;;
47113;SDS011;32867;51.556;6.832;2023-02-15T04:45:26;27.83;;;15.88;;
47113;SDS011;32867;51.556;6.832;2023-02-15T04:50:27;25.02;;;14.35;;
47113;SDS011;32867;51.556;6.832;2023-02-15T04:55:28;24.30;;;14.75;;
47113;SDS011;32867;51.556;6.832;2023-02-15T05:00:28;25.65;;;15.43;;
47113;SDS011;32867;51.556;6.832;2023-02-15T05:05:29;24.55;;;14.43;;
47113;SDS011;32867;51.556;6.832;2023-02-15T05:10:30;23.35;;;13.88;;
47113;SDS011;32867;51.556;6.832;2023-02-15T05:15:30;24.90;;;14.88;;
47113;SDS011;32867;51.556;6.832;2023-02-15T05:20:31;24.67;;;14.30;;
47113;SDS011;32867;51.556;6.832;2023-02-15T05:25:32;23.23;;;14.73;;
47113;SDS011;32867;51.556;6.832;2023-02-15T05:36:11;22.25;;;13.55;;
47113;SDS011;32867;51.556;6.832;2023-02-15T05:41:12;24.35;;;14.52;;
47113;SDS011;32867;51.556;6.832;2023-02-15T05:46:13;21.77;;;13.50;;
47113;SDS011;32867;51.556;6.832;2023-02-15T05:51:14;21.60;;;12.73;;
47113;SDS011;32867;51.556;6.832;2023-02-15T05:56:15;24.35;;;14.65;;
47113;SDS011;32867;51.556;6.832;2023-02-15T06:01:17;23.08;;;14.02;;
47113;SDS011;32867;51.556;6.832;2023-02-15T06:06:19;27.67;;;14.90;;
47113;SDS011;32867;51.556;6.832;2023-02-15T06:11:19;24.88;;;14.80;;
47113;SDS011;32867;51.556;6.832;2023-02-15T06:16:20;29.98;;;16.23;;
47113;SDS011;32867;51.556;6.832;2023-02-15T06:21:21;29.00;;;16.08;;
47113;SDS011;32867;51.556;6.832;2023-02-15T06:26:22;25.42;;;15.15;;
47113;SDS011;32867;51.556;6.832;2023-02-15T06:31:22;25.63;;;16.10;;
47113;SDS011;32867;51.556;6.832;2023-02-15T06:36:23;29.60;;;16.38;;
47113;SDS011;32867;51.556;6.832;2023-02-15T06:41:24;24.85;;;14.63;;
47113;SDS011;32867;51.556;6.832;2023-02-15T06:46:24;28.02;;;15.95;;
47113;SDS011;32867;51.556;6.832;2023-02-15T06:51:25;26.90;;;16.40;;
47113;SDS011;32867;51.556;6.832;2023-02-15T06:56:26;29.33;;;16.70;;
47113;SDS011;32867;51.556;6.832;2023-02-15T07:01:26;30.17;;;17.48;;
47113;SDS011;32867;51.556;6.832;2023-02-15T07:06:30;25.27;;;15.00;;
47113;SDS011;32867;51.556;6.832;2023-02-15T07:11:32;27.42;;;16.17;;
47113;SDS011;32867;51.556;6.832;2023-02-15T07:16:51;29.38;;;16.17;;
47113;SDS011;32867;51.556;6.832;2023-02-15T07:21:52;27.42;;;16.73;;
47113;SDS011;32867;51.556;6.832;2023-02-15T07:26:53;29.73;;;17.23;;
47113;SDS011;32867;51.556;6.832;2023-02-15T07:31:53;31.27;;;18.98;;
47113;SDS011;32867;51.556;6.832;2023-02-15T07:36:55;34.90;;;19.88;;
47113;SDS011;32867;51.556;6.832;2023-02-15T07:41:56;33.83;;;18.45;;
47113;SDS011;32867;51.556;6.832;2023-02-15T07:47:00;27.88;;;16.45;;
47113;SDS011;32867;51.556;6.832;2023-02-15T07:52:01;31.27;;;19.27;;
47113;SDS011;32867;51.556;6.832;2023-02-15T07:57:02;34.53;;;19.20;;
47113;SDS011;32867;51.556;6.832;2023-02-15T08:02:02;29.00;;;17.58;;
47113;SDS011;32867;51.556;6.832;2023-02-15T08:07:05;32.90;;;19.63;;
47113;SDS011;32867;51.556;6.832;2023-02-15T08:12:06;34.78;;;19.77;;
47113;SDS011;32867;51.556;6.832;2023-02-15T08:17:07;29.88;;;18.02;;
47113;SDS011;32867;51.556;6.832;2023-02-15T08:22:10;28.63;;;17.52;;
47113;SDS011;32867;51.556;6.832;2023-02-15T08:27:12;26.48;;;16.33;;
47113;SDS011;32867;51.556;6.832;2023-02-15T08:32:13;24.42;;;16.25;;
47113;SDS011;32867;51.556;6.832;2023-02-15T08:37:14;21.83;;;15.68;;
47113;SDS011;32867;51.556;6.832;2023-02-15T08:42:14;22.05;;;15.63;;
47113;SDS011;32867;51.556;6.832;2023-02-15T08:47:15;19.70;;;15.40;;
47113;SDS011;32867;51.556;6.832;2023-02-15T08:52:16;20.80;;;15.63;;
47113;SDS011;32867;51.556;6.832;2023-02-15T08:57:16;18.23;;;14.45;;
47113;SDS011;32867;51.556;6.832;2023-02-15T09:02:17;19.77;;;15.52;;
47113;SDS011;32867;51.556;6.832;2023-02-15T09:07:18;18.35;;;14.32;;
47113;SDS011;32867;51.556;6.832;2023-02-15T09:12:19;17.77;;;14.02;;
47113;SDS011;32867;51.556;6.832;2023-02-15T09:17:19;15.38;;;12.68;;
47113;SDS011;32867;51.556;6.832;2023-02-15T09:22:20;17.70;;;14.65;;
47113;SDS011;32867;51.556;6.832;2023-02-15T09:27:20;17.30;;;12.90;;
47113;SDS011;32867;51.556;6.832;2023-02-15T09:32:21;16.30;;;12.75;;
47113;SDS011;32867;51.556;6.832;2023-02-15T09:37:22;19.30;;;14.05;;
47113;SDS011;32867;51.556;6.832;2023-02-15T10:19:51;14.38;;;12.13;;
47113;SDS011;32867;51.556;6.832;2023-02-15T10:35:45;12.48;;;9.82;;
47113;SDS011;32867;51.556;6.832;2023-02-15T10:41:09;12.88;;;9.60;;
47113;SDS011;32867;51.556;6.832;2023-02-15T10:52:03;14.80;;;11.93;;
47113;SDS011;32867;51.556;6.832;2023-02-15T11:02:37;13.88;;;10.93;;
47113;SDS011;32867;51.556;6.832;2023-02-15T11:07:57;13.73;;;10.02;;
47113;SDS011;32867;51.556;6.832;2023-02-15T11:13:05;12.75;;;10.02;;
47113;SDS011;32867;51.556;6.832;2023-02-15T11:18:13;15.05;;;11.05;;
47113;SDS011;32867;51.556;6.832;2023-02-15T11:23:15;14.07;;;10.50;;
47113;SDS011;32867;51.556;6.832;2023-02-15T11:28:19;13.82;;;10.85;;
47113;SDS011;32867;51.556;6.832;2023-02-15T11:33:28;10.60;;;9.32;;
47113;SDS011;32867;51.556;6.832;2023-02-15T11:38:33;13.05;;;9.45;;
47113;SDS011;32867;51.556;6.832;2023-02-15T11:48:58;13.88;;;11.35;;
47113;SDS011;32867;51.556;6.832;2023-02-15T11:54:00;14.30;;;11.25;;
47113;SDS011;32867;51.556;6.832;2023-02-15T11:59:04;13.88;;;10.90;;
47113;SDS011;32867;51.556;6.832;2023-02-15T12:04:30;12.80;;;10.00;;
47113;SDS011;32867;51.556;6.832;2023-02-15T12:09:44;12.80;;;9.27;;
47113;SDS011;32867;51.556;6.832;2023-02-15T12:15:06;11.82;;;9.20;;
47113;SDS011;32867;51.556;6.832;2023-02-15T12:20:20;13.65;;;9.57;;
47113;SDS011;32867;51.556;6.832;2023-02-15T12:25:41;13.82;;;10.57;;
47113;SDS011;32867;51.556;6.832;2023-02-15T12:30:52;13.40;;;10.38;;
47113;SDS011;32867;51.556;6.832;2023-02-15T12:35:59;14.95;;;11.43;;
47113;SDS011;32867;51.556;6.832;2023-02-15T12:41:23;17.75;;;10.75;;
47113;SDS011;32867;51.556;6.832;2023-02-15T12:46:26;12.95;;;10.10;;
47113;SDS011;32867;51.556;6.832;2023-02-15T12:51:27;11.45;;;9.35;;
47113;SDS011;32867;51.556;6.832;2023-02-15T12:56:27;11.75;;;9.77;;
47113;SDS011;32867;51.556;6.832;2023-02-15T13:01:28;13.18;;;10.57;;
47113;SDS011;32867;51.556;6.832;2023-02-15T13:06:33;14.98;;;11.70;;
47113;SDS011;32867;51.556;6.832;2023-02-15T13:11:35;13.00;;;9.77;;
47113;SDS011;32867;51.556;6.832;2023-02-15T13:16:37;12.60;;;9.95;;
47113;SDS011;32867;51.556;6.832;2023-02-15T13:21:40;15.85;;;11.43;;
47113;SDS011;32867;51.556;6.832;2023-02-15T13:26:44;14.80;;;10.50;;
47113;SDS011;32867;51.556;6.832;2023-02-15T13:31:47;14.80;;;10.65;;
47113;SDS011;32867;51.556;6.832;2023-02-15T13:36:51;14.57;;;9.98;;
47113;SDS011;32867;51.556;6.832;2023-02-15T14:19:44;19.33;;;13.02;;
47113;SDS011;32867;51.556;6.832;2023-02-15T14:25:02;21.13;;;12.02;;
47113;SDS011;32867;51.556;6.832;2023-02-15T14:30:18;20.38;;;12.52;;
47113;SDS011;32867;51.556;6.832;2023-02-15T14:35:48;24.35;;;12.25;;
47113;SDS011;32867;51.556;6.832;2023-02-15T14:41:03;19.55;;;12.32;;
47113;SDS011;32867;51.556;6.832;2023-02-15T14:51:53;19.83;;;12.18;;
47113;SDS011;32867;51.556;6.832;2023-02-15T15:22:34;20.95;;;12.07;;
47113;SDS011;32867;51.556;6.832;2023-02-15T15:27:40;23.65;;;12.40;;
47113;SDS011;32867;51.556;6.832;2023-02-15T15:43:31;19.20;;;11.95;;
47113;SDS011;32867;51.556;6.832;2023-02-15T15:48:53;21.98;;;13.52;;
47113;SDS011;32867;51.556;6.832;2023-02-15T15:53:54;23.65;;;12.60;;
47113;SDS011;32867;51.556;6.832;2023-02-15T15:58:56;19.30;;;10.50;;
47113;SDS011;32867;51.556;6.832;2023-02-15T16:04:00;20.05;;;11.68;;
47113;SDS011;32867;51.556;6.832;2023-02-15T16:09:11;18.92;;;10.70;;
47113;SDS011;32867;51.556;6.832;2023-02-15T16:14:19;22.92;;;11.43;;
47113;SDS011;32867;51.556;6.832;2023-02-15T16:19:38;21.05;;;11.55;;
47113;SDS011;32867;51.556;6.832;2023-02-15T16:35:33;19.83;;;11.77;;
47113;SDS011;32867;51.556;6.832;2023-02-15T16:40:53;18.92;;;9.93;;
47113;SDS011;32867;51.556;6.832;2023-02-15T16:46:04;20.25;;;11.70;;
47113;SDS011;32867;51.556;6.832;2023-02-15T16:51:10;16.42;;;10.45;;
47113;SDS011;32867;51.556;6.832;2023-02-15T16:56:24;21.27;;;11.75;;
47113;SDS011;32867;51.556;6.832;2023-02-15T17:01:30;18.50;;;10.98;;
47113;SDS011;32867;51.556;6.832;2023-02-15T17:06:32;20.27;;;11.25;;
47113;SDS011;32867;51.556;6.832;2023-02-15T17:11:34;16.88;;;9.75;;
47113;SDS011;32867;51.556;6.832;2023-02-15T17:16:49;21.67;;;11.77;;
47113;SDS011;32867;51.556;6.832;2023-02-15T17:21:54;15.43;;;10.02;;
47113;SDS011;32867;51.556;6.832;2023-02-15T17:26:58;18.77;;;10.07;;
47113;SDS011;32867;51.556;6.832;2023-02-15T17:32:27;19.55;;;11.13;;
47113;SDS011;32867;51.556;6.832;2023-02-15T17:37:30;20.95;;;12.38;;
47113;SDS011;32867;51.556;6.832;2023-02-15T17:42:31;18.73;;;12.10;;
47113;SDS011;32867;51.556;6.832;2023-02-15T17:47:32;20.55;;;12.20;;
47113;SDS011;32867;51.556;6.832;2023-02-15T17:52:33;21.88;;;13.07;;
47113;SDS011;32867;51.556;6.832;2023-02-15T17:57:35;22.60;;;12.85;;
47113;SDS011;32867;51.556;6.832;2023-02-15T18:02:37;21.88;;;13.20;;
47113;SDS011;32867;51.556;6.832;2023-02-15T18:07:57;22.27;;;12.75;;
47113;SDS011;32867;51.556;6.832;2023-02-15T18:13:16;19.20;;;12.13;;
47113;SDS011;32867;51.556;6.832;2023-02-15T18:18:17;21.08;;;12.57;;
47113;SDS011;32867;51.556;6.832;2023-02-15T18:23:17;22.38;;;13.43;;
47113;SDS011;32867;51.556;6.832;2023-02-15T18:28:18;18.88;;;12.48;;
47113;SDS011;32867;51.556;6.832;2023-02-15T18:33:24;21.02;;;12.48;;
47113;SDS011;32867;51.556;6.832;2023-02-15T18:38:33;18.80;;;11.70;;
47113;SDS011;32867;51.556;6.832;2023-02-15T18:43:34;17.77;;;11.70;;
47113;SDS011;32867;51.556;6.832;2023-02-15T18:48:35;21.75;;;12.40;;
47113;SDS011;32867;51.556;6.832;2023-02-15T18:53:35;20.08;;;12.00;;
47113;SDS011;32867;51.556;6.832;2023-02-15T18:58:36;18.33;;;11.38;;
47113;SDS011;32867;51.556;6.832;2023-02-15T19:03:37;19.65;;;10.70;;
47113;SDS011;32867;51.556;6.832;2023-02-15T19:08:37;17.38;;;11.15;;
47113;SDS011;32867;51.556;6.832;2023-02-15T19:13:38;17.77;;;11.27;;
47113;SDS011;32867;51.556;6.832;2023-02-15T19:18:39;17.50;;;11.18;;
47113;SDS011;32867;51.556;6.832;2023-02-15T19:23:40;16.67;;;10.88;;
47113;SDS011;32867;51.556;6.832;2023-02-15T19:28:40;18.27;;;12.02;;
47113;SDS011;32867;51.556;6.832;2023-02-15T19:33:41;18.15;;;11.30;;
47113;SDS011;32867;51.556;6.832;2023-02-15T19:38:42;20.45;;;11.65;;
47113;SDS011;32867;51.556;6.832;2023-02-15T19:43:46;18.60;;;11.60;;
47113;SDS011;32867;51.556;6.832;2023-02-15T19:48:52;21.30;;;11.33;;
47113;SDS011;32867;51.556;6.832;2023-02-15T19:53:53;20.45;;;11.02;;
47113;SDS011;32867;51.556;6.832;2023-02-15T19:58:56;19.23;;;11.65;;
47113;SDS011;32867;51.556;6.832;2023-02-15T20:03:58;15.13;;;10.75;;
47113;SDS011;32867;51.556;6.832;2023-02-15T20:08:59;17.60;;;11.48;;
47113;SDS011;32867;51.556;6.832;2023-02-15T20:13:59;17.13;;;11.70;;
47113;SDS011;32867;51.556;6.832;2023-02-15T20:19:00;18.02;;;11.77;;
47113;SDS011;32867;51.556;6.832;2023-02-15T20:24:01;18.13;;;11.40;;
47113;SDS011;32867;51.556;6.832;2023-02-15T20:29:03;19.65;;;12.73;;
47113;SDS011;32867;51.556;6.832;2023-02-15T20:34:03;22.05;;;11.77;;
47113;SDS011;32867;51.556;6.832;2023-02-15T20:39:11;19.88;;;12.88;;
47113;SDS011;32867;51.556;6.832;2023-02-15T20:49:17;18.65;;;12.63;;
47113;SDS011;32867;51.556;6.832;2023-02-15T20:54:20;20.85;;;12.73;;
47113;SDS011;32867;51.556;6.832;2023-02-15T21:04:28;23.45;;;15.00;;
47113;SDS011;32867;51.556;6.832;2023-02-15T21:09:31;22.52;;;12.80;;
47113;SDS011;32867;51.556;6.832;2023-02-15T21:14:33;20.42;;;13.07;;
47113;SDS011;32867;51.556;6.832;2023-02-15T21:19:33;21.90;;;13.75;;
47113;SDS011;32867;51.556;6.832;2023-02-15T21:24:34;23.92;;;14.80;;
47113;SDS011;32867;51.556;6.832;2023-02-15T21:29:35;20.33;;;13.35;;
47113;SDS011;32867;51.556;6.832;2023-02-15T21:34:35;25.48;;;15.07;;
47113;SDS011;32867;51.556;6.832;2023-02-15T21:39:36;23.98;;;14.30;;
47113;SDS011;32867;51.556;6.832;2023-02-15T21:44:37;24.95;;;14.38;;
47113;SDS011;32867;51.556;6.832;2023-02-15T21:49:56;23.17;;;15.05;;
47113;SDS011;32867;51.556;6.832;2023-02-15T21:54:56;20.52;;;13.48;;
47113;SDS011;32867;51.556;6.832;2023-02-15T21:59:57;20.38;;;12.60;;
47113;SDS011;32867;51.556;6.832;2023-02-15T22:04:58;20.48;;;13.27;;
47113;SDS011;32867;51.556;6.832;2023-02-15T22:09:58;21.27;;;13.60;;
47113;SDS011;32867;51.556;6.832;2023-02-15T22:14:59;20.95;;;13.20;;
47113;SDS011;32867;51.556;6.832;2023-02-15T22:20:00;23.83;;;13.73;;
47113;SDS011;32867;51.556;6.832;2023-02-15T22:25:02;21.98;;;13.30;;
47113;SDS011;32867;51.556;6.832;2023-02-15T22:30:03;22.63;;;13.90;;
47113;SDS011;32867;51.556;6.832;2023-02-15T22:35:21;23.20;;;13.93;;
47113;SDS011;32867;51.556;6.832;2023-02-15T22:40:31;21.73;;;14.45;;
47113;SDS011;32867;51.556;6.832;2023-02-15T22:45:32;24.17;;;14.98;;
47113;SDS011;32867;51.556;6.832;2023-02-15T22:50:35;21.55;;;13.18;;
47113;SDS011;32867;51.556;6.832;2023-02-15T22:55:35;21.42;;;13.85;;
47113;SDS011;32867;51.556;6.832;2023-02-15T23:00:37;26.98;;;14.68;;
47113;SDS011;32867;51.556;6.832;2023-02-15T23:05:39;20.73;;;12.90;;
47113;SDS011;32867;51.556;6.832;2023-02-15T23:10:40;26.38;;;15.50;;
47113;SDS011;32867;51.556;6.832;2023-02-15T23:15:43;25.40;;;15.82;;
47113;SDS011;32867;51.556;6.832;2023-02-15T23:20:58;26.75;;;16.23;;
47113;SDS011;32867;51.556;6.832;2023-02-15T23:26:01;27.08;;;16.20;;
47113;SDS011;32867;51.556;6.832;2023-02-15T23:31:04;25.48;;;15.43;;
47113;SDS011;32867;51.556;6.832;2023-02-15T23:41:32;26.45;;;16.38;;
47113;SDS011;32867;51.556;6.832;2023-02-15T23:46:35;27.20;;;16.15;;
47113;SDS011;32867;51.556;6.832;2023-02-15T23:51:46;29.08;;;17.50;;
47113;SDS011;32867;51.556;6.832;2023-02-15T23:56:49;27.35;;;16.20;;
